Time;durP1;ratioP1;P1;durP2;ratioP2;P2;SDS_P1;SDS_P2;PMS_P1;PMS_P2;Temp;Humidity;BMP_temperature;BMP_pressure;BME280_temperature;BME280_humidity;BME280_pressure;Samples;Min_cycle;Max_cycle;Signal;HPM_P1;HPM_P2
2023/08/15 00:00:42;;;;;;;7.78;2.25;;;19.00;99.90;;;;;;5037524;28;20063;-68
2023/08/15 00:03:08;;;;;;;5.78;2.50;;;18.90;99.90;;;;;;5041805;28;20414;-68
2023/08/15 00:05:36;;;;;;;5.65;1.80;;;18.90;99.90;;;;;;5041790;28;20087;-68
2023/08/15 00:08:02;;;;;;;6.07;2.10;;;18.90;99.90;;;;;;5043108;28;20119;-69
2023/08/15 00:10:28;;;;;;;5.90;2.10;;;18.90;99.90;;;;;;5043084;28;20105;-70
2023/08/15 00:12:54;;;;;;;9.07;2.50;;;18.90;99.90;;;;;;5044835;28;20135;-69
2023/08/15 00:15:20;;;;;;;7.55;2.25;;;18.90;99.90;;;;;;5038871;28;20055;-69
2023/08/15 00:17:45;;;;;;;5.47;2.00;;;18.80;99.90;;;;;;5027383;28;20108;-69
2023/08/15 00:20:11;;;;;;;6.50;2.30;;;18.80;99.90;;;;;;5043783;28;20072;-69
2023/08/15 00:22:37;;;;;;;6.70;2.10;;;18.80;99.90;;;;;;5027479;28;20132;-69
2023/08/15 00:25:03;;;;;;;5.68;2.20;;;18.70;99.90;;;;;;5037935;28;20508;-69
2023/08/15 00:27:28;;;;;;;4.90;2.20;;;18.70;99.90;;;;;;5044266;28;20071;-71
2023/08/15 00:29:54;;;;;;;7.13;2.53;;;18.70;99.90;;;;;;5044423;28;20135;-69
2023/08/15 00:32:20;;;;;;;7.65;2.67;;;18.70;99.90;;;;;;5040315;28;20401;-68
2023/08/15 00:34:46;;;;;;;10.75;4.18;;;18.60;99.90;;;;;;5043509;28;20394;-69
2023/08/15 00:37:11;;;;;;;11.63;4.32;;;18.60;99.90;;;;;;5043963;28;20632;-69
2023/08/15 00:39:37;;;;;;;11.23;4.25;;;18.60;99.90;;;;;;5040852;28;20052;-69
2023/08/15 00:42:03;;;;;;;11.73;4.72;;;18.60;99.90;;;;;;5044451;28;20037;-69
2023/08/15 00:44:28;;;;;;;12.43;4.53;;;18.60;99.90;;;;;;5044557;28;20056;-69
2023/08/15 00:46:54;;;;;;;14.88;5.03;;;18.60;99.90;;;;;;5044579;28;20037;-69
2023/08/15 00:49:20;;;;;;;10.07;5.00;;;18.50;99.90;;;;;;5039748;28;20049;-69
2023/08/15 00:51:47;;;;;;;14.52;5.38;;;18.50;99.90;;;;;;5045706;28;20893;-69
2023/08/15 00:54:14;;;;;;;12.20;5.55;;;18.60;99.90;;;;;;5027774;28;20398;-69
2023/08/15 00:56:40;;;;;;;12.68;4.93;;;18.50;99.90;;;;;;5038740;28;20513;-69
2023/08/15 00:59:06;;;;;;;11.57;5.22;;;18.50;99.90;;;;;;5067246;28;20130;-69
2023/08/15 01:01:33;;;;;;;11.57;5.35;;;18.60;99.90;;;;;;5035114;28;20106;-69
2023/08/15 01:03:59;;;;;;;10.40;4.93;;;18.60;99.90;;;;;;5040343;28;20080;-68
2023/08/15 01:06:24;;;;;;;9.82;5.00;;;18.50;99.90;;;;;;5043470;28;20522;-69
2023/08/15 01:08:50;;;;;;;11.93;4.53;;;18.50;99.90;;;;;;5072879;28;20118;-69
2023/08/15 01:11:16;;;;;;;8.50;3.92;;;18.50;99.90;;;;;;5054698;28;20123;-68
2023/08/15 01:14:00;;;;;;;11.10;4.65;;;18.60;99.90;;;;;;5037226;28;20406;-68
2023/08/15 01:16:32;;;;;;;10.52;5.20;;;18.60;99.90;;;;;;5034658;28;20385;-68
2023/08/15 01:19:06;;;;;;;10.80;4.28;;;18.50;99.90;;;;;;5030997;28;20387;-68
2023/08/15 01:21:38;;;;;;;9.52;4.47;;;18.50;99.90;;;;;;5031247;28;20040;-68
2023/08/15 01:24:05;;;;;;;11.88;4.85;;;18.50;99.90;;;;;;5017256;28;20543;-68
2023/08/15 01:26:31;;;;;;;14.30;5.18;;;18.50;99.90;;;;;;5072224;28;20116;-68
2023/08/15 01:28:57;;;;;;;13.50;5.78;;;18.50;99.90;;;;;;5023037;28;20159;-68
2023/08/15 01:31:30;;;;;;;10.77;4.50;;;18.50;99.90;;;;;;5042130;28;20041;-69
2023/08/15 01:34:23;;;;;;;11.93;4.90;;;18.50;99.90;;;;;;5023010;28;20045;-68
2023/08/15 01:36:56;;;;;;;11.45;4.68;;;18.50;99.90;;;;;;5041565;28;20044;-69
2023/08/15 01:39:27;;;;;;;18.13;5.22;;;18.40;99.90;;;;;;5056022;28;20044;-69
2023/08/15 01:41:56;;;;;;;12.57;5.07;;;18.40;99.90;;;;;;5025391;28;20074;-69
2023/08/15 01:44:23;;;;;;;10.27;4.88;;;18.40;99.90;;;;;;5042637;28;20524;-68
2023/08/15 01:46:49;;;;;;;10.60;5.40;;;18.40;99.90;;;;;;5039127;28;20045;-68
2023/08/15 01:49:15;;;;;;;11.18;5.07;;;18.40;99.90;;;;;;5043556;28;20044;-68
2023/08/15 01:51:41;;;;;;;13.98;5.40;;;18.40;99.90;;;;;;5043139;28;20186;-68
2023/08/15 01:54:06;;;;;;;13.00;5.43;;;18.40;99.90;;;;;;5023813;28;20351;-67
2023/08/15 01:56:32;;;;;;;12.25;5.05;;;18.40;99.90;;;;;;5041228;28;20056;-68
2023/08/15 01:58:58;;;;;;;12.20;5.80;;;18.30;99.90;;;;;;5041128;28;20387;-68
2023/08/15 02:01:23;;;;;;;12.82;5.63;;;18.30;99.90;;;;;;5043441;28;20041;-68
2023/08/15 02:03:49;;;;;;;10.73;5.28;;;18.30;99.90;;;;;;5042492;28;20091;-68
2023/08/15 02:06:15;;;;;;;14.30;6.15;;;18.30;99.90;;;;;;5044255;28;20045;-68
2023/08/15 02:08:40;;;;;;;12.00;5.20;;;18.30;99.90;;;;;;5042939;28;20183;-68
2023/08/15 02:11:06;;;;;;;13.73;5.90;;;18.30;99.90;;;;;;5041847;28;20071;-68
2023/08/15 02:13:33;;;;;;;13.88;6.18;;;18.30;99.90;;;;;;5039706;28;20513;-68
2023/08/15 02:15:59;;;;;;;14.32;5.93;;;18.30;99.90;;;;;;5025725;28;20076;-68
2023/08/15 02:18:29;;;;;;;10.77;5.15;;;18.30;99.90;;;;;;5039719;28;20041;-68
2023/08/15 02:20:55;;;;;;;13.68;5.30;;;18.30;99.90;;;;;;5045450;28;20048;-68
2023/08/15 02:23:21;;;;;;;13.35;5.90;;;18.20;99.90;;;;;;5041869;28;20792;-68
2023/08/15 02:25:47;;;;;;;12.85;5.47;;;18.30;99.90;;;;;;5041645;28;20055;-68
2023/08/15 02:28:13;;;;;;;12.18;6.10;;;18.30;99.90;;;;;;5041880;28;20040;-68
2023/08/15 02:30:39;;;;;;;11.65;6.13;;;18.30;99.90;;;;;;5043287;28;20048;-68
2023/08/15 02:33:07;;;;;;;14.15;5.07;;;18.40;99.90;;;;;;5044102;28;20040;-69
2023/08/15 02:35:33;;;;;;;12.95;5.68;;;18.40;99.90;;;;;;5042050;28;20071;-68
2023/08/15 02:37:59;;;;;;;9.27;4.97;;;18.30;99.90;;;;;;5040042;28;20136;-69
2023/08/15 02:40:26;;;;;;;13.35;5.38;;;18.30;99.90;;;;;;5041446;28;20178;-68
2023/08/15 02:42:52;;;;;;;14.82;6.00;;;18.30;99.90;;;;;;5039223;28;20044;-68
2023/08/15 02:45:18;;;;;;;9.95;5.57;;;18.30;99.90;;;;;;5038261;28;20045;-68
2023/08/15 02:47:47;;;;;;;14.75;7.25;;;18.40;99.90;;;;;;5040070;28;20075;-68
2023/08/15 02:50:14;;;;;;;12.82;6.68;;;18.30;99.90;;;;;;5024865;28;21819;-68
2023/08/15 02:52:40;;;;;;;13.27;7.60;;;18.30;99.90;;;;;;5045883;28;20048;-69
2023/08/15 02:55:06;;;;;;;15.98;8.10;;;18.30;99.90;;;;;;5043291;28;20080;-69
2023/08/15 02:57:32;;;;;;;17.08;8.57;;;18.30;99.90;;;;;;5046316;28;20076;-69
2023/08/15 02:59:58;;;;;;;18.63;9.90;;;18.30;99.90;;;;;;5042309;28;20460;-69
2023/08/15 03:02:24;;;;;;;12.30;7.38;;;18.30;99.90;;;;;;5044506;28;20135;-69
2023/08/15 03:04:49;;;;;;;12.82;7.05;;;18.20;99.90;;;;;;5046240;28;20048;-69
2023/08/15 03:07:15;;;;;;;14.13;7.65;;;18.20;99.90;;;;;;5044318;28;20144;-70
2023/08/15 03:09:41;;;;;;;11.25;7.65;;;18.30;99.90;;;;;;5044577;28;20060;-70
2023/08/15 03:12:07;;;;;;;12.82;7.82;;;18.20;99.90;;;;;;5042166;28;20048;-70
2023/08/15 03:14:33;;;;;;;12.18;6.65;;;18.20;99.90;;;;;;5041728;28;20042;-70
2023/08/15 03:16:59;;;;;;;12.77;6.63;;;18.20;99.90;;;;;;5073924;28;20051;-71
2023/08/15 03:19:24;;;;;;;12.48;6.97;;;18.20;99.90;;;;;;5042737;28;20080;-70
2023/08/15 03:21:50;;;;;;;11.88;6.38;;;18.20;99.90;;;;;;5043224;28;20049;-70
2023/08/15 03:24:16;;;;;;;14.02;7.88;;;18.20;99.90;;;;;;5046565;28;20063;-71
2023/08/15 03:26:44;;;;;;;13.35;7.05;;;18.20;99.90;;;;;;5046340;28;20102;-71
2023/08/15 03:29:10;;;;;;;13.73;7.10;;;18.20;99.90;;;;;;5044606;28;20045;-69
2023/08/15 03:31:36;;;;;;;11.90;6.70;;;18.20;99.90;;;;;;5044302;28;20600;-70
2023/08/15 03:34:02;;;;;;;12.30;7.15;;;18.10;99.90;;;;;;5045311;28;20140;-71
2023/08/15 03:36:27;;;;;;;12.75;7.03;;;18.20;99.90;;;;;;5043692;28;20195;-70
2023/08/15 03:38:53;;;;;;;12.07;6.70;;;18.20;99.90;;;;;;5045019;28;20049;-71
2023/08/15 03:41:19;;;;;;;16.13;7.82;;;18.20;99.90;;;;;;5044871;28;20324;-70
2023/08/15 03:43:44;;;;;;;12.35;7.03;;;18.20;99.90;;;;;;5042750;28;20490;-70
2023/08/15 03:46:10;;;;;;;13.20;8.55;;;18.20;99.90;;;;;;5045752;28;20128;-70
2023/08/15 03:48:36;;;;;;;15.32;8.15;;;18.20;99.90;;;;;;5041061;28;20072;-70
2023/08/15 03:51:02;;;;;;;13.95;7.90;;;18.20;99.90;;;;;;5042465;28;20053;-70
2023/08/15 03:53:28;;;;;;;10.50;7.55;;;18.20;99.90;;;;;;5045327;28;20044;-71
2023/08/15 03:55:54;;;;;;;14.55;7.57;;;18.20;99.90;;;;;;5047435;28;20069;-70
2023/08/15 03:58:21;;;;;;;17.42;8.18;;;18.10;99.90;;;;;;5041703;28;20288;-71
2023/08/15 04:00:48;;;;;;;15.32;7.82;;;18.10;99.90;;;;;;5044076;28;20037;-71
2023/08/15 04:03:14;;;;;;;12.00;7.97;;;18.10;99.90;;;;;;5045112;28;20048;-71
2023/08/15 04:05:42;;;;;;;15.13;8.55;;;18.10;99.90;;;;;;5040518;28;20049;-70
2023/08/15 04:08:08;;;;;;;14.75;8.00;;;18.10;99.90;;;;;;5025317;28;20045;-71
2023/08/15 04:10:39;;;;;;;14.80;7.80;;;18.10;99.90;;;;;;5044978;28;20044;-71
2023/08/15 04:13:06;;;;;;;17.25;9.80;;;18.10;99.90;;;;;;5037999;28;20152;-70
2023/08/15 04:15:33;;;;;;;13.60;8.80;;;18.10;99.90;;;;;;5042798;28;20045;-70
2023/08/15 04:17:59;;;;;;;14.57;8.50;;;18.10;99.90;;;;;;5040306;28;20053;-70
2023/08/15 04:20:25;;;;;;;12.30;8.07;;;18.10;99.90;;;;;;5042811;28;20051;-70
2023/08/15 04:22:51;;;;;;;12.35;8.38;;;18.10;99.90;;;;;;5067608;28;20502;-71
2023/08/15 04:25:17;;;;;;;14.32;7.55;;;18.10;99.90;;;;;;5043960;28;20045;-70
2023/08/15 04:27:43;;;;;;;13.52;7.45;;;18.00;99.90;;;;;;5041769;28;20151;-70
2023/08/15 04:30:08;;;;;;;16.80;8.65;;;18.10;99.90;;;;;;5037682;28;20033;-71
2023/08/15 04:32:35;;;;;;;14.60;8.32;;;18.00;99.90;;;;;;5044817;28;20045;-70
2023/08/15 04:35:00;;;;;;;14.23;8.88;;;18.00;99.90;;;;;;5024338;28;20502;-70
2023/08/15 04:37:26;;;;;;;15.50;8.95;;;18.00;99.90;;;;;;5040647;28;20094;-70
2023/08/15 04:39:52;;;;;;;13.35;8.35;;;18.00;99.90;;;;;;5042628;28;20126;-69
2023/08/15 04:42:18;;;;;;;12.60;7.80;;;18.00;99.90;;;;;;5043068;28;20048;-70
2023/08/15 04:44:43;;;;;;;15.05;8.20;;;18.00;99.90;;;;;;5042308;28;20053;-71
2023/08/15 04:47:09;;;;;;;12.93;8.00;;;18.00;99.90;;;;;;5037218;28;20048;-70
2023/08/15 04:49:35;;;;;;;14.30;7.53;;;18.00;99.90;;;;;;5041375;28;20107;-71
2023/08/15 04:52:01;;;;;;;14.65;7.88;;;18.00;99.90;;;;;;5043483;28;20170;-71
2023/08/15 04:54:27;;;;;;;12.80;7.68;;;17.90;99.90;;;;;;5044462;28;20071;-71
2023/08/15 04:56:53;;;;;;;13.95;7.38;;;17.90;99.90;;;;;;5039470;28;20040;-71
2023/08/15 04:59:19;;;;;;;13.32;7.28;;;18.00;99.90;;;;;;5042021;28;20053;-71
2023/08/15 05:01:45;;;;;;;16.27;7.40;;;17.90;99.90;;;;;;5039412;28;20041;-70
2023/08/15 05:04:11;;;;;;;12.73;7.38;;;17.90;99.90;;;;;;5039430;28;20045;-71
2023/08/15 05:06:40;;;;;;;13.65;7.47;;;17.90;99.90;;;;;;5041347;28;20432;-71
2023/08/15 05:09:06;;;;;;;11.80;6.78;;;17.90;99.90;;;;;;5040115;28;20044;-71
2023/08/15 05:11:31;;;;;;;13.85;7.38;;;17.90;99.90;;;;;;5043017;28;20585;-71
2023/08/15 05:14:00;;;;;;;13.38;7.00;;;17.90;99.90;;;;;;5038155;28;20568;-71
2023/08/15 05:16:26;;;;;;;12.55;7.15;;;17.90;99.90;;;;;;5039401;28;20457;-68
2023/08/15 05:18:51;;;;;;;14.35;7.32;;;17.90;99.90;;;;;;5022163;28;20045;-70
2023/08/15 05:21:17;;;;;;;11.73;6.43;;;17.90;99.90;;;;;;5037838;28;20806;-68
2023/08/15 05:23:43;;;;;;;11.27;6.95;;;17.90;99.90;;;;;;5039658;28;20037;-68
2023/08/15 05:26:09;;;;;;;13.35;6.95;;;17.80;99.90;;;;;;5042950;28;20498;-68
2023/08/15 05:28:34;;;;;;;10.65;6.05;;;17.90;99.90;;;;;;5040640;28;20108;-70
2023/08/15 05:31:00;;;;;;;10.75;6.75;;;17.90;99.90;;;;;;5039081;28;20049;-69
2023/08/15 05:33:26;;;;;;;13.05;6.40;;;17.90;99.90;;;;;;5039185;28;20037;-69
2023/08/15 05:35:52;;;;;;;13.70;6.32;;;17.90;99.90;;;;;;5044099;28;20039;-69
2023/08/15 05:38:17;;;;;;;16.70;6.53;;;17.90;99.90;;;;;;5040395;28;20075;-69
2023/08/15 05:40:44;;;;;;;13.35;6.28;;;17.90;99.90;;;;;;5042403;28;20048;-69
2023/08/15 05:43:09;;;;;;;10.10;5.90;;;17.90;99.90;;;;;;5040327;28;20045;-69
2023/08/15 05:45:35;;;;;;;11.50;6.03;;;17.90;99.90;;;;;;5025082;28;20044;-69
2023/08/15 05:48:01;;;;;;;16.15;5.47;;;17.90;99.90;;;;;;5040623;28;20583;-68
2023/08/15 05:50:26;;;;;;;12.23;5.80;;;17.90;99.90;;;;;;5042124;28;20417;-68
2023/08/15 05:52:52;;;;;;;11.15;5.57;;;17.90;99.90;;;;;;5042949;28;20071;-69
2023/08/15 05:55:18;;;;;;;10.73;4.95;;;17.90;99.90;;;;;;5044251;28;20045;-69
2023/08/15 05:57:43;;;;;;;13.45;5.20;;;17.90;99.90;;;;;;5041775;28;20037;-68
2023/08/15 06:00:10;;;;;;;12.68;5.43;;;17.90;99.90;;;;;;5041412;28;20457;-68
2023/08/15 06:02:38;;;;;;;10.82;5.30;;;18.00;99.90;;;;;;5041116;28;20047;-68
2023/08/15 06:05:04;;;;;;;13.55;5.13;;;18.00;99.90;;;;;;5043251;28;20041;-69
2023/08/15 06:07:30;;;;;;;12.07;5.13;;;18.00;99.90;;;;;;5043216;28;20040;-69
2023/08/15 06:09:56;;;;;;;11.52;4.65;;;18.00;99.90;;;;;;5042717;28;20049;-68
2023/08/15 06:12:22;;;;;;;10.43;4.82;;;18.00;99.90;;;;;;5041255;28;20051;-68
2023/08/15 06:14:48;;;;;;;11.52;5.63;;;18.00;99.90;;;;;;5040123;28;20045;-68
2023/08/15 06:17:13;;;;;;;11.68;5.40;;;18.00;99.90;;;;;;5043181;28;20133;-68
2023/08/15 06:19:40;;;;;;;10.30;5.45;;;18.00;99.90;;;;;;5042247;28;20049;-68
2023/08/15 06:22:05;;;;;;;12.95;6.22;;;18.00;99.90;;;;;;5042958;28;20126;-68
2023/08/15 06:24:31;;;;;;;11.48;6.15;;;18.00;99.90;;;;;;5042465;28;20754;-69
2023/08/15 06:26:57;;;;;;;12.48;6.68;;;18.00;99.90;;;;;;5048824;28;20041;-69
2023/08/15 06:29:25;;;;;;;13.13;7.15;;;18.10;99.90;;;;;;5031120;28;20029;-69
2023/08/15 06:31:53;;;;;;;12.43;6.13;;;18.10;99.90;;;;;;5047564;28;20083;-69
2023/08/15 06:34:19;;;;;;;11.32;6.22;;;18.20;99.90;;;;;;5046253;28;20406;-68
2023/08/15 06:36:45;;;;;;;11.32;5.90;;;18.30;99.90;;;;;;5048309;28;20044;-69
2023/08/15 06:39:11;;;;;;;16.27;6.70;;;18.40;99.90;;;;;;5046248;28;20037;-69
2023/08/15 06:41:37;;;;;;;14.68;6.53;;;18.40;99.90;;;;;;5046231;28;20141;-69
2023/08/15 06:44:04;;;;;;;10.82;5.88;;;18.50;99.90;;;;;;5028011;28;20042;-68
2023/08/15 06:46:29;;;;;;;14.32;5.93;;;18.60;99.90;;;;;;5044812;28;20562;-67
2023/08/15 06:48:56;;;;;;;14.13;5.70;;;18.70;99.90;;;;;;5047767;28;20128;-68
2023/08/15 06:51:22;;;;;;;13.80;5.07;;;18.70;99.90;;;;;;5047387;28;20781;-69
2023/08/15 06:53:52;;;;;;;13.20;5.13;;;18.80;99.90;;;;;;5045000;28;20048;-69
2023/08/15 06:56:18;;;;;;;10.48;4.72;;;18.90;99.90;;;;;;5046976;28;20577;-69
2023/08/15 06:58:44;;;;;;;13.00;5.13;;;18.90;99.90;;;;;;5045898;28;20120;-69
2023/08/15 07:01:12;;;;;;;12.73;4.35;;;18.90;99.90;;;;;;5048607;28;20068;-69
2023/08/15 07:03:38;;;;;;;12.10;3.97;;;19.00;99.90;;;;;;5046941;28;20040;-68
2023/08/15 07:06:05;;;;;;;11.45;3.90;;;19.00;99.90;;;;;;5046153;28;20161;-69
2023/08/15 07:08:31;;;;;;;12.07;4.53;;;19.00;99.90;;;;;;5047013;28;20041;-68
2023/08/15 07:10:58;;;;;;;13.10;4.30;;;19.00;99.90;;;;;;5045902;28;20048;-69
2023/08/15 07:13:24;;;;;;;14.27;4.03;;;19.00;99.90;;;;;;5046759;28;20123;-68
2023/08/15 07:15:54;;;;;;;12.23;4.43;;;19.10;99.90;;;;;;5043875;28;20470;-68
2023/08/15 07:18:20;;;;;;;13.75;4.05;;;19.10;99.90;;;;;;5028067;28;20063;-68
2023/08/15 07:20:46;;;;;;;14.50;3.88;;;19.20;99.90;;;;;;5042080;28;20045;-69
2023/08/15 07:23:11;;;;;;;13.20;3.70;;;19.20;99.90;;;;;;5028046;28;20048;-68
2023/08/15 07:25:41;;;;;;;11.35;3.50;;;19.30;99.90;;;;;;5043439;28;20565;-69
2023/08/15 07:28:07;;;;;;;13.57;3.03;;;19.30;99.90;;;;;;5045379;28;20094;-69
2023/08/15 07:30:33;;;;;;;10.05;3.05;;;19.30;99.90;;;;;;5035642;28;20124;-69
2023/08/15 07:32:59;;;;;;;13.18;2.92;;;19.40;99.90;;;;;;5047793;28;20080;-69
2023/08/15 07:35:28;;;;;;;15.00;3.67;;;19.50;99.90;;;;;;5029888;28;20075;-69
2023/08/15 07:37:53;;;;;;;9.23;2.40;;;19.50;99.90;;;;;;5029698;28;20102;-68
2023/08/15 07:40:21;;;;;;;13.93;2.85;;;19.50;99.90;;;;;;5021706;28;20044;-68
2023/08/15 07:42:49;;;;;;;12.00;3.53;;;19.60;99.90;;;;;;5058140;28;20096;-70
2023/08/15 07:45:22;;;;;;;13.60;2.67;;;19.60;99.90;;;;;;5028355;28;20139;-69
2023/08/15 07:47:51;;;;;;;10.77;2.58;;;19.60;99.90;;;;;;5032744;28;20052;-69
2023/08/15 07:50:19;;;;;;;15.07;3.15;;;19.70;99.90;;;;;;5025816;28;20140;-69
2023/08/15 07:52:45;;;;;;;11.70;2.75;;;19.70;99.90;;;;;;5022590;28;20052;-69
2023/08/15 07:55:11;;;;;;;10.50;2.63;;;19.80;99.90;;;;;;5021647;28;20049;-68
2023/08/15 07:57:37;;;;;;;10.25;2.65;;;19.80;99.90;;;;;;5009224;28;20469;-69
2023/08/15 08:00:04;;;;;;;9.98;3.33;;;19.90;99.90;;;;;;5024325;28;20041;-68
2023/08/15 08:02:30;;;;;;;8.40;2.78;;;19.90;99.90;;;;;;5025480;28;20045;-69
2023/08/15 08:04:58;;;;;;;10.98;3.08;;;20.10;99.90;;;;;;5008800;28;20037;-68
2023/08/15 08:07:24;;;;;;;9.95;2.47;;;20.10;99.90;;;;;;5061923;28;20721;-69
2023/08/15 08:09:50;;;;;;;7.97;2.20;;;20.20;99.90;;;;;;5028555;28;20045;-69
2023/08/15 08:12:16;;;;;;;9.00;2.47;;;20.30;99.90;;;;;;5030180;28;20049;-69
2023/08/15 08:14:41;;;;;;;7.65;2.25;;;20.30;99.90;;;;;;5029241;28;20757;-69
2023/08/15 08:17:07;;;;;;;11.25;2.38;;;20.40;99.90;;;;;;5030521;28;20055;-69
2023/08/15 08:19:33;;;;;;;8.75;2.20;;;20.50;99.90;;;;;;5027647;28;20571;-69
2023/08/15 08:21:59;;;;;;;9.90;1.88;;;20.60;99.90;;;;;;5029539;28;20065;-70
2023/08/15 08:24:25;;;;;;;12.52;2.60;;;20.70;99.90;;;;;;5028573;28;20040;-69
2023/08/15 08:26:51;;;;;;;10.50;2.03;;;20.80;99.90;;;;;;5027743;28;20120;-70
2023/08/15 08:29:17;;;;;;;9.20;2.30;;;21.00;99.90;;;;;;5026609;28;20712;-70
2023/08/15 08:31:42;;;;;;;10.75;2.42;;;21.10;99.90;;;;;;5030122;28;20606;-66
2023/08/15 08:34:15;;;;;;;8.77;2.45;;;21.10;99.90;;;;;;5030250;28;20037;-70
2023/08/15 08:36:42;;;;;;;10.57;2.60;;;21.20;99.90;;;;;;5029917;28;20073;-70
2023/08/15 08:39:08;;;;;;;7.43;2.08;;;21.40;99.90;;;;;;5028782;28;20120;-70
2023/08/15 08:41:35;;;;;;;10.25;2.63;;;21.40;99.90;;;;;;5061766;28;20039;-70
2023/08/15 08:44:02;;;;;;;8.60;2.13;;;21.40;99.90;;;;;;5030042;28;20072;-70
2023/08/15 08:46:28;;;;;;;8.77;2.13;;;21.50;99.90;;;;;;5027821;28;20136;-70
2023/08/15 08:48:57;;;;;;;9.23;2.70;;;21.50;99.90;;;;;;5009288;28;20049;-70
2023/08/15 08:51:27;;;;;;;9.73;2.38;;;21.50;99.90;;;;;;5029710;28;20547;-68
2023/08/15 08:53:53;;;;;;;10.88;2.45;;;21.50;99.90;;;;;;5061763;28;20048;-69
2023/08/15 08:56:22;;;;;;;9.23;2.15;;;21.50;99.90;;;;;;5027310;28;20063;-70
2023/08/15 08:59:05;;;;;;;11.93;2.10;;;21.50;99.90;;;;;;5028401;28;20106;-69
2023/08/15 09:01:31;;;;;;;11.13;2.08;;;21.50;99.90;;;;;;5062953;28;20055;-69
2023/08/15 09:03:57;;;;;;;8.43;2.30;;;21.40;99.90;;;;;;5028384;28;20184;-69
2023/08/15 09:06:28;;;;;;;6.60;1.73;;;21.40;99.90;;;;;;5030817;28;20862;-70
2023/08/15 09:08:54;;;;;;;8.50;2.17;;;21.40;99.90;;;;;;5031341;28;20048;-69
2023/08/15 09:11:23;;;;;;;11.73;2.97;;;21.30;99.90;;;;;;5029616;28;20087;-69
2023/08/15 09:13:53;;;;;;;6.55;1.88;;;21.40;99.90;;;;;;5027472;28;20048;-70
2023/08/15 09:16:18;;;;;;;6.95;1.67;;;21.40;99.90;;;;;;5026842;28;20041;-70
2023/08/15 09:18:47;;;;;;;6.57;1.63;;;21.40;99.90;;;;;;5004259;28;20083;-70
2023/08/15 09:21:13;;;;;;;10.60;2.22;;;21.50;99.90;;;;;;5023591;28;20061;-69
2023/08/15 09:23:44;;;;;;;7.28;1.90;;;21.60;99.90;;;;;;5024127;28;20037;-70
2023/08/15 09:26:16;;;;;;;9.45;2.00;;;21.60;99.90;;;;;;5027057;28;20083;-70
2023/08/15 09:28:44;;;;;;;8.13;1.70;;;21.70;99.90;;;;;;5011285;28;20056;-68
2023/08/15 09:31:10;;;;;;;6.97;1.90;;;21.60;99.90;;;;;;5031633;28;20126;-69
2023/08/15 09:33:40;;;;;;;8.52;1.70;;;21.70;99.90;;;;;;5021713;28;20183;-69
2023/08/15 09:36:09;;;;;;;9.65;1.98;;;21.70;99.90;;;;;;5028428;28;20052;-69
2023/08/15 09:38:36;;;;;;;7.38;1.90;;;21.80;99.90;;;;;;5033126;28;20147;-70
2023/08/15 09:41:02;;;;;;;6.05;1.80;;;21.80;99.90;;;;;;5042822;28;20049;-70
2023/08/15 09:43:29;;;;;;;12.07;2.13;;;21.80;99.90;;;;;;5046780;28;20037;-69
2023/08/15 09:45:58;;;;;;;7.75;1.70;;;21.70;99.90;;;;;;5042225;28;20056;-70
2023/08/15 09:48:27;;;;;;;10.07;1.80;;;21.70;99.90;;;;;;5044248;28;20040;-70
2023/08/15 09:50:55;;;;;;;9.02;2.00;;;21.80;99.90;;;;;;5033584;28;20038;-70
2023/08/15 09:53:23;;;;;;;6.13;1.52;;;21.90;99.90;;;;;;5060938;28;20134;-70
2023/08/15 09:55:49;;;;;;;6.90;1.55;;;21.90;99.90;;;;;;5016225;28;20124;-71
2023/08/15 09:58:16;;;;;;;11.35;1.88;;;22.10;99.90;;;;;;5033790;28;20140;-70
2023/08/15 10:00:43;;;;;;;5.32;1.60;;;22.20;99.90;;;;;;5035752;28;20513;-70
2023/08/15 10:03:19;;;;;;;7.30;1.48;;;22.30;99.90;;;;;;5032507;28;20103;-71
2023/08/15 10:05:49;;;;;;;8.02;1.60;;;22.40;99.90;;;;;;5013828;28;20052;-71
2023/08/15 10:08:18;;;;;;;9.20;1.70;;;22.50;99.90;;;;;;5036952;28;20598;-72
2023/08/15 10:10:45;;;;;;;7.80;1.45;;;22.60;99.90;;;;;;5041546;28;20064;-72
2023/08/15 10:13:11;;;;;;;7.95;1.70;;;22.60;99.90;;;;;;5038871;28;20040;-71
2023/08/15 10:15:38;;;;;;;5.80;1.50;;;22.60;99.90;;;;;;5040331;28;20398;-72
2023/08/15 10:18:05;;;;;;;6.97;1.63;;;22.70;99.90;;;;;;5034787;28;20127;-72
2023/08/15 10:20:36;;;;;;;6.97;1.80;;;22.80;99.90;;;;;;5039117;28;20576;-72
2023/08/15 10:23:02;;;;;;;5.57;1.58;;;22.90;99.90;;;;;;5038891;28;20144;-71
2023/08/15 10:25:28;;;;;;;4.60;1.25;;;22.90;99.90;;;;;;5038976;28;20067;-72
2023/08/15 10:27:55;;;;;;;8.02;1.63;;;22.90;99.90;;;;;;5017843;28;20190;-73
2023/08/15 10:30:30;;;;;;;5.35;1.30;;;22.90;99.90;;;;;;5055486;28;20094;-72
2023/08/15 10:33:00;;;;;;;3.80;1.20;;;23.00;99.90;;;;;;5023947;28;20046;-72
2023/08/15 10:35:27;;;;;;;6.38;1.65;;;23.00;99.90;;;;;;5025525;28;20094;-72
2023/08/15 10:37:55;;;;;;;5.25;1.40;;;23.00;99.90;;;;;;5028269;28;20041;-72
2023/08/15 10:40:21;;;;;;;5.43;1.52;;;23.10;99.90;;;;;;5038805;28;21400;-73
2023/08/15 10:43:02;;;;;;;5.43;1.35;;;23.20;99.90;;;;;;5026553;28;20048;-72
2023/08/15 10:45:36;;;;;;;6.40;1.48;;;23.20;99.90;;;;;;5026266;28;20401;-71
2023/08/15 10:48:02;;;;;;;4.47;1.10;;;23.30;99.90;;;;;;5026523;28;20068;-72
2023/08/15 10:50:28;;;;;;;6.68;1.42;;;23.30;99.90;;;;;;5032316;28;20474;-72
2023/08/15 10:52:58;;;;;;;5.90;1.55;;;23.30;99.90;;;;;;5026540;28;20057;-72
2023/08/15 10:55:30;;;;;;;4.63;1.13;;;23.30;99.90;;;;;;5057742;28;20103;-71
2023/08/15 10:57:56;;;;;;;3.88;1.08;;;23.30;99.90;;;;;;5028193;28;20041;-72
2023/08/15 11:00:23;;;;;;;5.57;1.33;;;23.30;99.90;;;;;;5025323;28;20048;-71
2023/08/15 11:02:50;;;;;;;3.45;1.00;;;23.30;99.90;;;;;;5026683;28;20833;-73
2023/08/15 11:05:38;;;;;;;3.90;1.10;;;23.30;99.90;;;;;;5024777;28;20049;-73
2023/08/15 11:08:15;;;;;;;5.90;1.85;;;23.30;99.90;;;;;;5056855;28;20444;-72
2023/08/15 11:10:46;;;;;;;8.13;1.30;;;23.30;99.90;;;;;;5011439;28;20124;-72
2023/08/15 11:13:11;;;;;;;;;;;23.30;99.90;;;;;;5064397;28;20120;-72
2023/08/15 11:15:38;;;;;;;6.80;1.45;;;23.30;99.90;;;;;;5033208;28;19929;-71
2023/08/15 11:18:04;;;;;;;8.45;1.30;;;23.30;99.90;;;;;;5047228;28;20045;-72
2023/08/15 11:20:30;;;;;;;8.55;1.58;;;23.30;99.90;;;;;;5034842;28;20052;-72
2023/08/15 11:22:57;;;;;;;6.43;1.25;;;23.40;99.90;;;;;;5027163;28;20107;-71
2023/08/15 11:25:23;;;;;;;8.02;1.98;;;23.40;99.90;;;;;;5028828;28;20812;-71
2023/08/15 11:27:52;;;;;;;5.20;1.67;;;23.40;99.90;;;;;;5005551;28;20041;-72
2023/08/15 11:30:18;;;;;;;7.03;1.58;;;23.40;99.90;;;;;;5028377;28;20059;-70
2023/08/15 11:32:45;;;;;;;7.30;1.35;;;23.50;99.90;;;;;;5031313;28;20128;-71
2023/08/15 11:35:11;;;;;;;3.75;1.17;;;23.50;99.90;;;;;;5026898;28;20095;-71
2023/08/15 11:37:37;;;;;;;6.63;1.70;;;23.60;99.90;;;;;;5034071;28;20048;-71
2023/08/15 11:40:07;;;;;;;5.57;1.23;;;23.60;99.90;;;;;;5029155;28;20044;-72
2023/08/15 11:42:34;;;;;;;3.40;1.10;;;23.70;99.90;;;;;;5041827;28;20048;-73
2023/08/15 11:45:12;;;;;;;5.65;1.40;;;23.70;99.90;;;;;;5058611;28;20055;-72
2023/08/15 11:47:56;;;;;;;6.75;1.40;;;23.80;99.90;;;;;;5031617;28;20693;-72
2023/08/15 11:50:28;;;;;;;7.35;1.50;;;23.80;99.90;;;;;;5030380;28;20266;-73
2023/08/15 11:52:54;;;;;;;5.20;1.30;;;23.80;99.90;;;;;;5028885;28;20049;-71
2023/08/15 11:55:21;;;;;;;7.38;1.30;;;23.80;99.90;;;;;;5027031;28;20094;-72
2023/08/15 11:57:47;;;;;;;6.82;1.48;;;23.80;99.90;;;;;;5010874;28;20049;-74
2023/08/15 12:00:18;;;;;;;5.75;1.30;;;23.80;99.90;;;;;;5010702;28;20059;-71
2023/08/15 12:02:45;;;;;;;7.53;1.80;;;23.80;99.90;;;;;;5026421;28;20128;-70
2023/08/15 12:05:13;;;;;;;8.13;1.92;;;23.90;99.90;;;;;;5024496;28;20038;-71
2023/08/15 12:07:39;;;;;;;7.32;1.55;;;23.90;99.90;;;;;;5026376;28;20046;-70
2023/08/15 12:10:07;;;;;;;6.30;1.70;;;23.90;99.90;;;;;;5026726;28;20063;-71
2023/08/15 12:12:39;;;;;;;6.70;1.58;;;24.00;99.90;;;;;;5028934;28;20040;-71
2023/08/15 12:15:07;;;;;;;5.68;1.65;;;24.00;99.90;;;;;;5030143;28;20501;-71
2023/08/15 12:17:33;;;;;;;8.43;1.75;;;24.00;99.90;;;;;;5030790;28;20076;-71
2023/08/15 12:19:59;;;;;;;8.57;2.00;;;24.00;99.90;;;;;;5031548;28;20137;-72
2023/08/15 12:22:25;;;;;;;8.52;1.42;;;24.00;99.90;;;;;;5016460;28;20048;-72
2023/08/15 12:24:51;;;;;;;7.75;1.85;;;24.00;99.90;;;;;;5027897;28;20041;-71
2023/08/15 12:27:17;;;;;;;6.78;2.33;;;23.90;99.90;;;;;;5026092;28;20041;-71
2023/08/15 12:29:42;;;;;;;5.95;1.60;;;23.90;99.90;;;;;;5043320;28;20042;-72
2023/08/15 12:32:08;;;;;;;8.35;2.03;;;23.90;99.90;;;;;;5028600;28;20041;-72
2023/08/15 12:34:34;;;;;;;8.55;1.90;;;23.90;99.90;;;;;;5030830;28;20053;-72
2023/08/15 12:36:59;;;;;;;8.10;1.50;;;23.90;99.90;;;;;;5017015;28;20128;-72
2023/08/15 12:39:25;;;;;;;7.72;1.88;;;23.90;99.90;;;;;;5030185;28;20379;-72